Skaelskor, Denmark
Current Conditions -  °F | °C
As of 9:50 PM on Thursday 27 Nov 2014 (Local Time) from EKAV Reporting Station
Clear Clear  
Wind Chill: 34°   Ceiling: Unl
Heat Index: 43°   Visibility: 6mi
Dew Point: 36°   Wind: 23mph
Humidity: 76%   Direction: 120°ESE
Pressure: 30.15"   Gusts: NA
Location:  55.25°N, 11.29°E
Report Text: EKAV 272050Z AUTO 12020KT 9999NDV NCD 06/02 Q1021
Loading
Personal Weather Stations






























Interactive Weather Map New forecast layout! Learn more

10-Day Weather Forecast

Advertisements
Track Severe Weather on mobile